createdAt,value
2018-07-20T00:02:07.925Z,15.70
2018-07-20T00:05:12.298Z,15.80
2018-07-20T00:08:19.097Z,15.60
2018-07-20T00:11:24.434Z,15.50
2018-07-20T00:14:32.591Z,15.40
2018-07-20T00:17:39.028Z,15.70
2018-07-20T00:23:48.865Z,15.40
2018-07-20T00:26:56.116Z,15.50
2018-07-20T00:30:03.924Z,15.40
2018-07-20T00:33:09.203Z,15.30
2018-07-20T00:36:13.454Z,15.10
2018-07-20T00:39:18.951Z,15.00
2018-07-20T00:42:23.988Z,15.00
2018-07-20T00:45:28.350Z,15.10
2018-07-20T00:48:38.273Z,15.00
2018-07-20T00:51:43.081Z,14.70
2018-07-20T00:54:47.544Z,14.70
2018-07-20T00:57:52.227Z,14.70
2018-07-20T01:00:58.990Z,14.80
2018-07-20T01:04:03.431Z,14.70
2018-07-20T01:07:07.736Z,14.70
2018-07-20T01:10:13.048Z,14.60
2018-07-20T01:13:20.347Z,14.60
2018-07-20T01:19:29.336Z,14.70
2018-07-20T01:22:34.090Z,14.80
2018-07-20T01:25:39.017Z,14.80
2018-07-20T01:28:44.064Z,14.60
2018-07-20T01:31:51.002Z,14.60
2018-07-20T01:34:55.312Z,14.60
2018-07-20T01:38:00.857Z,14.70
2018-07-20T01:41:05.215Z,14.80
2018-07-20T01:47:18.036Z,14.80
2018-07-20T01:50:28.350Z,14.60
2018-07-20T01:53:34.844Z,14.40
2018-07-20T01:56:43.696Z,14.40
2018-07-20T01:59:49.369Z,14.40
2018-07-20T02:02:53.829Z,14.50
2018-07-20T02:05:58.673Z,14.40
2018-07-20T02:09:08.452Z,14.30
2018-07-20T02:12:13.372Z,14.20
2018-07-20T02:15:20.123Z,14.00
2018-07-20T02:18:25.127Z,13.80
2018-07-20T02:21:31.710Z,13.80
2018-07-20T02:24:38.648Z,13.70
2018-07-20T02:27:42.995Z,13.80
2018-07-20T02:30:48.350Z,13.70
2018-07-20T02:33:53.661Z,13.60
2018-07-20T02:37:00.366Z,13.40
2018-07-20T02:40:06.177Z,13.40
2018-07-20T02:43:10.984Z,13.50
2018-07-20T02:46:15.344Z,13.60
2018-07-20T02:49:21.960Z,13.40
2018-07-20T02:52:26.816Z,13.30
2018-07-20T02:55:34.873Z,13.30
2018-07-20T02:58:40.368Z,13.50
2018-07-20T03:01:45.973Z,13.40
2018-07-20T03:04:51.883Z,13.40
2018-07-20T03:07:58.339Z,13.20
2018-07-20T03:11:04.490Z,13.30
2018-07-20T03:14:09.504Z,13.20
2018-07-20T03:17:14.565Z,13.00
2018-07-20T03:20:21.159Z,13.20
2018-07-20T03:23:26.916Z,13.20
2018-07-20T03:26:32.171Z,13.40
2018-07-20T03:29:39.213Z,13.40
2018-07-20T03:32:43.962Z,13.20
2018-07-20T03:35:48.382Z,13.20
2018-07-20T03:38:52.697Z,13.20
2018-07-20T03:41:57.937Z,13.30
2018-07-20T03:45:03.672Z,13.50
2018-07-20T03:48:08.747Z,13.50
2018-07-20T03:51:13.048Z,13.40
2018-07-20T03:54:17.412Z,13.30
2018-07-20T03:57:22.697Z,13.10
2018-07-20T04:00:27.111Z,13.10
2018-07-20T04:03:34.093Z,13.00
2018-07-20T04:06:38.491Z,13.20
2018-07-20T04:09:44.084Z,13.20
2018-07-20T04:12:48.389Z,13.50
2018-07-20T04:15:52.750Z,13.70
2018-07-20T04:18:57.117Z,13.70
2018-07-20T04:22:01.615Z,13.50
2018-07-20T04:25:06.511Z,13.50
2018-07-20T04:28:10.892Z,13.60
2018-07-20T04:31:15.282Z,13.50
2018-07-20T04:34:19.667Z,13.50
2018-07-20T04:37:24.128Z,13.60
2018-07-20T04:40:28.521Z,13.40
2018-07-20T04:43:33.056Z,13.40
2018-07-20T04:46:38.043Z,13.60
2018-07-20T04:49:45.521Z,13.50
2018-07-20T04:53:03.322Z,13.80
2018-07-20T04:56:09.354Z,13.90
2018-07-20T04:59:15.073Z,14.00
2018-07-20T05:02:19.948Z,14.20
2018-07-20T05:05:26.379Z,14.40
2018-07-20T05:08:30.649Z,14.40
2018-07-20T05:11:36.380Z,14.50
2018-07-20T05:14:43.456Z,14.80
2018-07-20T05:17:48.032Z,14.90
2018-07-20T05:20:52.630Z,14.90
2018-07-20T05:23:57.032Z,15.10
2018-07-20T05:27:02.569Z,15.30
2018-07-20T05:30:07.484Z,15.30
2018-07-20T05:33:12.470Z,15.50
2018-07-20T05:36:16.753Z,15.60
2018-07-20T05:39:24.340Z,15.70
2018-07-20T05:42:28.675Z,15.80
2018-07-20T05:45:33.466Z,16.00
2018-07-20T05:48:38.759Z,16.20
2018-07-20T05:51:48.887Z,16.20
2018-07-20T05:54:53.428Z,16.20
2018-07-20T05:58:00.143Z,16.40
2018-07-20T06:01:06.656Z,16.60
2018-07-20T06:04:12.575Z,17.00
2018-07-20T06:07:16.921Z,17.20
2018-07-20T06:10:22.814Z,17.50
2018-07-20T06:13:27.996Z,17.70
2018-07-20T06:16:33.468Z,17.90
2018-07-20T06:19:38.099Z,18.30
2018-07-20T06:22:43.703Z,18.60
2018-07-20T06:25:51.395Z,19.40
2018-07-20T06:28:57.108Z,20.80
2018-07-20T06:32:01.502Z,22.20
2018-07-20T06:35:05.878Z,23.80
2018-07-20T06:38:10.822Z,26.30
2018-07-20T06:41:15.981Z,27.90
2018-07-20T06:44:22.873Z,29.20
2018-07-20T06:47:27.266Z,28.20
2018-07-20T06:50:34.175Z,28.20
2018-07-20T06:53:38.833Z,28.50
2018-07-20T06:56:43.304Z,30.80
2018-07-20T06:59:51.326Z,30.70
2018-07-20T07:02:56.842Z,31.50
2018-07-20T07:06:03.514Z,31.90
2018-07-20T07:09:09.961Z,32.10
2018-07-20T07:12:14.921Z,32.30
2018-07-20T07:15:22.147Z,31.80
2018-07-20T07:18:30.275Z,32.50
2018-07-20T07:21:34.643Z,33.20
2018-07-20T07:24:39.879Z,33.10
2018-07-20T07:27:50.162Z,31.10
2018-07-20T07:34:20.834Z,33.60
2018-07-20T07:37:34.022Z,34.30
2018-07-20T07:40:42.197Z,34.10
2018-07-20T07:43:47.238Z,35.10
2018-07-20T07:46:51.754Z,35.20
2018-07-20T07:49:56.268Z,35.30
2018-07-20T07:53:00.772Z,34.10
2018-07-20T07:56:05.488Z,33.60
2018-07-20T07:59:12.295Z,34.40
2018-07-20T08:02:18.438Z,32.60
2018-07-20T08:05:29.851Z,32.70
2018-07-20T08:08:36.833Z,33.30
2018-07-20T08:14:54.550Z,33.60
2018-07-20T08:18:03.505Z,33.80
2018-07-20T08:21:10.119Z,34.00
2018-07-20T08:24:16.072Z,33.50
2018-07-20T08:27:27.094Z,34.40
2018-07-20T08:33:54.628Z,35.10
2018-07-20T08:37:00.877Z,35.50
2018-07-20T08:40:07.844Z,35.20
2018-07-20T08:43:13.208Z,35.30
2018-07-20T08:46:17.981Z,35.20
2018-07-20T08:49:25.493Z,33.50
2018-07-20T08:52:33.212Z,33.00
2018-07-20T08:55:40.100Z,33.10
2018-07-20T08:58:45.216Z,32.70
2018-07-20T09:01:51.409Z,32.00
2018-07-20T09:04:56.728Z,32.20
2018-07-20T09:08:01.596Z,32.20
2018-07-20T09:11:07.802Z,31.40
2018-07-20T09:14:14.162Z,31.30
2018-07-20T09:17:19.486Z,32.60
2018-07-20T09:20:26.584Z,32.90
2018-07-20T09:23:31.916Z,33.40
2018-07-20T09:26:38.821Z,33.10
2018-07-20T09:29:43.478Z,32.90
2018-07-20T09:32:49.526Z,33.60
2018-07-20T09:35:55.792Z,34.60
2018-07-20T09:39:10.123Z,35.00
2018-07-20T09:42:20.386Z,34.10
2018-07-20T09:45:30.880Z,32.70
2018-07-20T09:48:36.036Z,32.70
2018-07-20T09:51:40.997Z,33.30
2018-07-20T09:54:46.170Z,32.50
2018-07-20T09:57:53.895Z,32.60
2018-07-20T10:00:58.637Z,33.10
2018-07-20T10:04:06.051Z,33.90
2018-07-20T10:07:12.079Z,34.40
2018-07-20T10:10:20.367Z,33.80
2018-07-20T10:13:26.841Z,34.20
2018-07-20T10:16:32.457Z,34.10
2018-07-20T10:19:40.959Z,34.90
2018-07-20T10:22:46.544Z,34.50
2018-07-20T10:25:54.503Z,34.60
2018-07-20T10:29:00.998Z,34.90
2018-07-20T10:32:06.579Z,34.80
2018-07-20T10:35:13.577Z,34.70
2018-07-20T10:38:18.806Z,34.70
2018-07-20T10:41:23.937Z,34.70
2018-07-20T10:44:29.708Z,33.80
2018-07-20T10:47:34.770Z,32.40
2018-07-20T10:50:41.255Z,33.30
2018-07-20T10:53:46.819Z,33.30
2018-07-20T10:56:51.556Z,34.00
2018-07-20T10:59:56.657Z,33.70
2018-07-20T11:03:01.937Z,33.30
2018-07-20T11:06:08.026Z,32.30
2018-07-20T11:09:12.346Z,31.90
2018-07-20T11:12:19.411Z,31.60
2018-07-20T11:15:26.270Z,31.30
2018-07-20T11:18:54.562Z,30.60
2018-07-20T11:22:02.406Z,30.60
2018-07-20T11:25:24.476Z,31.20
2018-07-20T11:28:51.037Z,31.50
2018-07-20T11:32:16.000Z,31.70
2018-07-20T11:35:22.082Z,31.20
2018-07-20T11:38:27.607Z,31.40
2018-07-20T11:41:31.969Z,31.60
2018-07-20T11:44:36.979Z,31.30
2018-07-20T11:47:43.831Z,30.90
2018-07-20T11:50:53.621Z,30.10
2018-07-20T11:54:02.355Z,30.30
2018-07-20T11:57:08.349Z,30.10
2018-07-20T12:00:13.175Z,30.00
2018-07-20T12:03:18.596Z,29.80
2018-07-20T12:06:23.338Z,30.10
2018-07-20T12:09:27.826Z,30.00
2018-07-20T12:12:33.997Z,29.40
2018-07-20T12:15:38.776Z,29.40
2018-07-20T12:18:44.582Z,29.50
2018-07-20T12:21:50.243Z,29.40
2018-07-20T12:24:58.976Z,29.70
2018-07-20T12:28:04.050Z,29.50
2018-07-20T12:31:10.112Z,29.00
2018-07-20T12:34:16.060Z,28.70
2018-07-20T12:37:21.324Z,28.80
2018-07-20T12:40:33.787Z,28.90
2018-07-20T12:43:40.032Z,28.90
2018-07-20T12:46:45.139Z,29.30
2018-07-20T12:49:49.951Z,29.00
2018-07-20T12:52:55.926Z,28.90
2018-07-20T12:56:03.419Z,29.20
2018-07-20T12:59:09.213Z,29.10
2018-07-20T13:02:15.377Z,29.00
2018-07-20T13:05:20.233Z,29.00
2018-07-20T13:08:25.184Z,29.20
2018-07-20T13:11:29.822Z,29.20
2018-07-20T13:17:41.104Z,29.40
2018-07-20T13:20:45.683Z,29.80
2018-07-20T13:23:52.446Z,29.90
2018-07-20T13:27:00.561Z,29.60
2018-07-20T13:30:09.660Z,29.30
2018-07-20T13:33:14.074Z,29.50
2018-07-20T13:36:19.517Z,29.80
2018-07-20T13:39:26.226Z,29.90
2018-07-20T13:42:31.711Z,30.00
2018-07-20T13:45:36.562Z,29.80
2018-07-20T13:48:40.767Z,29.70
2018-07-20T13:51:45.472Z,29.90
2018-07-20T13:54:49.955Z,29.80
2018-07-20T13:57:54.614Z,29.60
2018-07-20T14:00:59.427Z,29.50
2018-07-20T14:04:05.878Z,29.40
2018-07-20T14:07:10.712Z,29.50
2018-07-20T14:10:15.348Z,30.00
2018-07-20T14:13:19.974Z,30.30
2018-07-20T14:16:25.356Z,30.20
2018-07-20T14:19:30.020Z,29.90
2018-07-20T14:22:34.783Z,29.70
2018-07-20T14:25:39.702Z,29.90
2018-07-20T14:28:44.286Z,29.70
2018-07-20T14:31:49.042Z,29.80
2018-07-20T14:34:54.788Z,29.80
2018-07-20T14:38:00.674Z,29.70
2018-07-20T14:41:06.425Z,29.60
2018-07-20T14:44:11.072Z,29.40
2018-07-20T14:47:15.689Z,29.30
2018-07-20T14:50:21.205Z,29.30
2018-07-20T14:53:25.940Z,29.10
2018-07-20T14:56:30.965Z,29.00
2018-07-20T14:59:35.717Z,29.20
2018-07-20T15:02:40.462Z,29.30
2018-07-20T15:05:45.185Z,29.30
2018-07-20T15:08:49.823Z,29.50
2018-07-20T15:11:54.739Z,29.70
2018-07-20T15:18:04.504Z,30.10
2018-07-20T15:21:09.238Z,30.20
2018-07-20T15:24:13.956Z,30.30
2018-07-20T15:27:18.874Z,29.90
2018-07-20T15:30:25.692Z,30.10
2018-07-20T15:33:30.322Z,30.10
2018-07-20T15:36:34.998Z,29.80
2018-07-20T15:39:39.571Z,29.90
2018-07-20T15:42:44.341Z,29.40
2018-07-20T15:45:52.314Z,29.50
2018-07-20T15:48:53.461Z,29.50
2018-07-20T15:53:35.606Z,29.50
2018-07-20T15:55:02.738Z,29.60
2018-07-20T15:58:07.253Z,29.70
2018-07-20T16:01:11.846Z,29.40
2018-07-20T16:04:16.289Z,29.50
2018-07-20T16:07:20.903Z,29.50
2018-07-20T16:10:25.597Z,29.30
2018-07-20T16:13:30.157Z,29.10
2018-07-20T16:16:35.369Z,28.90
2018-07-20T16:19:40.267Z,28.90
2018-07-20T16:22:45.015Z,29.20
2018-07-20T16:25:49.729Z,29.40
2018-07-20T16:28:54.071Z,29.30
2018-07-20T16:31:58.690Z,29.10
2018-07-20T16:35:03.306Z,29.00
2018-07-20T16:38:08.161Z,29.10
2018-07-20T16:41:12.762Z,29.30
2018-07-20T16:44:18.584Z,29.10
2018-07-20T16:50:32.048Z,29.10
2018-07-20T16:53:38.107Z,29.10
2018-07-20T16:56:42.670Z,29.00
2018-07-20T16:59:47.260Z,28.70
2018-07-20T17:02:51.714Z,28.80
2018-07-20T17:05:56.304Z,28.70
2018-07-20T17:09:00.900Z,28.70
2018-07-20T17:12:05.397Z,28.50
2018-07-20T17:15:10.316Z,28.40
2018-07-20T17:18:15.026Z,28.40
2018-07-20T17:21:19.842Z,28.40
2018-07-20T17:24:24.149Z,28.30
2018-07-20T17:27:30.141Z,28.20
2018-07-20T17:30:34.450Z,28.10
2018-07-20T17:33:39.651Z,28.00
2018-07-20T17:36:44.311Z,27.90
2018-07-20T17:43:11.085Z,27.80
2018-07-20T17:46:16.296Z,27.80
2018-07-20T17:49:21.694Z,27.70
2018-07-20T17:52:26.041Z,27.70
2018-07-20T17:55:33.400Z,27.60
2018-07-20T17:58:39.067Z,27.60
2018-07-20T18:01:49.404Z,27.60
2018-07-20T18:04:57.261Z,27.50
2018-07-20T18:08:03.210Z,27.40
2018-07-20T18:11:07.682Z,27.40
2018-07-20T18:14:16.183Z,27.40
2018-07-20T18:17:21.563Z,27.30
2018-07-20T18:20:28.658Z,27.20
2018-07-20T18:23:35.079Z,27.20
2018-07-20T18:26:42.196Z,27.00
2018-07-20T18:29:48.070Z,26.80
2018-07-20T18:32:52.648Z,26.60
2018-07-20T18:36:00.045Z,26.50
2018-07-20T18:39:07.844Z,26.50
2018-07-20T18:42:15.167Z,26.60
2018-07-20T18:45:21.556Z,26.60
2018-07-20T18:48:27.692Z,26.60
2018-07-20T18:51:32.215Z,26.40
2018-07-20T18:54:39.023Z,26.30
2018-07-20T18:57:45.589Z,26.20
2018-07-20T19:00:51.298Z,26.10
2018-07-20T19:03:55.662Z,25.90
2018-07-20T19:07:00.097Z,25.80
2018-07-20T19:13:08.807Z,25.50
2018-07-20T19:16:13.283Z,25.30
2018-07-20T19:19:17.757Z,25.20
2018-07-20T19:22:22.415Z,24.90
2018-07-20T19:25:26.720Z,24.60
2018-07-20T19:28:31.874Z,24.40
2018-07-20T19:31:36.417Z,24.20
2018-07-20T19:34:40.947Z,24.10
2018-07-20T19:37:46.004Z,23.90
2018-07-20T19:40:50.633Z,23.60
2018-07-20T19:43:56.595Z,23.50
2018-07-20T19:47:00.949Z,23.30
2018-07-20T19:50:05.824Z,23.20
2018-07-20T19:53:10.259Z,23.00
2018-07-20T19:56:15.945Z,22.90
2018-07-20T19:59:20.890Z,22.70
2018-07-20T20:02:25.583Z,22.50
2018-07-20T20:05:30.378Z,22.40
2018-07-20T20:08:36.723Z,22.30
2018-07-20T20:11:44.515Z,22.10
2018-07-20T20:14:49.941Z,22.00
2018-07-20T20:17:56.582Z,21.90
2018-07-20T20:21:00.920Z,21.90
2018-07-20T20:24:05.313Z,21.80
2018-07-20T20:27:09.570Z,21.60
2018-07-20T20:30:13.847Z,21.60
2018-07-20T20:33:18.430Z,21.50
2018-07-20T20:36:25.696Z,21.50
2018-07-20T20:39:36.076Z,21.50
2018-07-20T20:42:44.201Z,21.40
2018-07-20T20:45:51.516Z,21.40
2018-07-20T20:49:03.359Z,21.30
2018-07-20T20:52:14.435Z,21.20
2018-07-20T20:55:18.750Z,21.10
2018-07-20T20:58:23.378Z,21.00
2018-07-20T21:01:27.641Z,21.00
2018-07-20T21:04:33.306Z,20.90
2018-07-20T21:07:37.765Z,20.90
2018-07-20T21:10:44.490Z,20.80
2018-07-20T21:13:50.462Z,20.80
2018-07-20T21:16:56.054Z,20.70
2018-07-20T21:20:00.355Z,20.60
2018-07-20T21:23:05.104Z,20.60
2018-07-20T21:26:10.802Z,20.50
2018-07-20T21:29:17.100Z,20.40
2018-07-20T21:32:22.166Z,20.50
2018-07-20T21:35:29.099Z,20.40
2018-07-20T21:38:35.572Z,20.30
2018-07-20T21:41:42.063Z,20.20
2018-07-20T21:44:46.435Z,20.20
2018-07-20T21:47:54.157Z,20.10
2018-07-20T21:50:59.196Z,20.00
2018-07-20T21:54:12.121Z,19.90
2018-07-20T21:57:20.418Z,19.90
2018-07-20T22:00:24.888Z,19.80
2018-07-20T22:03:30.587Z,19.70
2018-07-20T22:06:35.139Z,19.80
2018-07-20T22:09:39.905Z,19.70
2018-07-20T22:12:44.490Z,19.70
2018-07-20T22:15:49.440Z,19.60
2018-07-20T22:18:54.344Z,19.50
2018-07-20T22:21:58.686Z,19.50
2018-07-20T22:25:05.010Z,19.50
2018-07-20T22:28:09.515Z,19.50
2018-07-20T22:31:14.732Z,19.40
2018-07-20T22:34:19.320Z,19.30
2018-07-20T22:37:23.676Z,19.20
2018-07-20T22:40:28.632Z,19.10
2018-07-20T22:43:33.728Z,19.10
2018-07-20T22:46:39.112Z,19.00
2018-07-20T22:49:44.599Z,19.00
2018-07-20T22:52:48.965Z,19.00
2018-07-20T22:55:54.134Z,19.00
2018-07-20T22:58:59.740Z,19.00
2018-07-20T23:02:04.986Z,19.00
2018-07-20T23:05:09.252Z,19.10
2018-07-20T23:08:13.808Z,19.00
2018-07-20T23:11:18.299Z,18.90
2018-07-20T23:14:22.761Z,18.90
2018-07-20T23:17:27.157Z,18.90
2018-07-20T23:20:31.668Z,18.80
2018-07-20T23:23:36.367Z,18.80
2018-07-20T23:26:40.711Z,18.70
2018-07-20T23:29:44.956Z,18.70
2018-07-20T23:32:49.241Z,18.70
2018-07-20T23:35:53.606Z,18.60
2018-07-20T23:38:57.970Z,18.60
2018-07-20T23:42:02.293Z,18.60
2018-07-20T23:45:08.782Z,18.50
2018-07-20T23:48:14.304Z,18.50
2018-07-20T23:51:19.656Z,18.50
2018-07-20T23:54:25.939Z,18.50
2018-07-20T23:57:30.252Z,18.40
